createdAt,value
2023-03-17T06:49:53.676Z,6.53
2023-03-17T06:52:56.580Z,6.10
2023-03-17T06:55:59.059Z,6.00
2023-03-17T07:03:04.887Z,6.75
2023-03-17T07:06:08.650Z,6.20
2023-03-17T07:09:11.207Z,6.20
2023-03-17T07:12:14.303Z,6.28
2023-03-17T07:15:18.822Z,6.28
2023-03-17T07:18:22.636Z,5.72
2023-03-17T07:21:25.314Z,6.55
2023-03-17T07:24:27.945Z,5.90
2023-03-17T07:27:31.171Z,5.70
2023-03-17T07:30:33.792Z,5.60
2023-03-17T07:33:38.052Z,6.47
2023-03-17T07:36:40.687Z,5.78
2023-03-17T07:39:43.722Z,5.30
2023-03-17T07:42:46.379Z,5.88
2023-03-17T07:45:48.981Z,5.68
2023-03-17T07:48:53.494Z,5.53
2023-03-17T07:51:55.973Z,5.57
2023-03-17T07:54:58.826Z,5.85
2023-03-17T07:58:01.943Z,6.45
2023-03-17T08:01:05.295Z,6.03
2023-03-17T08:04:10.839Z,5.63
2023-03-17T08:07:14.628Z,5.28
2023-03-17T08:10:18.227Z,5.88
2023-03-17T08:13:20.775Z,6.03
2023-03-17T08:16:23.352Z,5.32
2023-03-17T08:19:27.232Z,6.15
2023-03-17T08:22:29.715Z,6.25
2023-03-17T08:25:32.694Z,6.25
2023-03-17T08:28:35.179Z,5.57
2023-03-17T08:31:38.074Z,5.68
2023-03-17T08:34:44.336Z,5.88
2023-03-17T08:37:47.930Z,4.93
2023-03-17T08:40:50.929Z,5.55
2023-03-17T08:43:54.372Z,5.65
2023-03-17T08:46:57.922Z,4.75
2023-03-17T08:50:02.037Z,4.57
2023-03-17T08:53:04.531Z,5.50
2023-03-17T08:56:08.416Z,5.30
2023-03-17T08:59:12.529Z,5.75
2023-03-17T09:02:15.933Z,5.40
2023-03-17T09:05:20.662Z,4.85
2023-03-17T09:08:24.087Z,5.45
2023-03-17T09:11:28.761Z,5.43
2023-03-17T09:14:40.051Z,5.10
2023-03-17T09:17:45.208Z,5.22
2023-03-17T09:20:49.015Z,5.20
2023-03-17T09:23:51.498Z,5.35
2023-03-17T09:26:53.968Z,4.55
2023-03-17T09:29:56.454Z,4.70
2023-03-17T09:32:59.147Z,4.50
2023-03-17T09:36:03.067Z,3.40
2023-03-17T09:39:06.259Z,4.10
2023-03-17T09:42:19.839Z,4.10
2023-03-17T09:45:31.292Z,4.18
2023-03-17T09:48:49.360Z,3.67
2023-03-17T09:51:54.027Z,3.63
2023-03-17T09:54:57.866Z,3.78
2023-03-17T09:58:03.357Z,4.45
2023-03-17T10:01:06.393Z,3.13
2023-03-17T10:04:10.494Z,3.80
2023-03-17T10:07:18.280Z,3.58
2023-03-17T10:10:29.729Z,3.30
2023-03-17T10:13:45.627Z,3.30
2023-03-17T10:16:54.008Z,3.38
2023-03-17T10:20:01.692Z,3.22
2023-03-17T10:23:10.938Z,2.88
2023-03-17T10:26:27.398Z,3.58
2023-03-17T10:29:31.481Z,3.22
2023-03-17T10:32:38.668Z,3.70
2023-03-17T10:35:41.310Z,3.47
2023-03-17T10:38:54.173Z,3.17
2023-03-17T10:41:58.475Z,3.25
2023-03-17T10:45:08.850Z,2.85
2023-03-17T10:48:18.624Z,3.05
2023-03-17T10:51:30.909Z,3.13
2023-03-17T10:54:36.125Z,3.15
2023-03-17T10:57:39.772Z,3.20
2023-03-17T11:00:55.372Z,3.53
2023-03-17T11:04:00.448Z,3.72
2023-03-17T11:07:10.334Z,3.88
2023-03-17T11:10:21.357Z,4.05
2023-03-17T11:13:30.147Z,2.80
2023-03-17T11:16:35.926Z,3.60
2023-03-17T11:19:45.004Z,3.08
2023-03-17T11:22:54.958Z,3.50
2023-03-17T11:26:14.670Z,4.25
2023-03-17T11:29:37.428Z,3.38
2023-03-17T11:32:45.916Z,3.22
2023-03-17T11:35:55.774Z,3.63
2023-03-17T11:39:04.177Z,3.88
2023-03-17T11:42:18.213Z,4.32
2023-03-17T11:45:28.510Z,3.30
2023-03-17T11:48:41.592Z,3.35
2023-03-17T11:51:56.636Z,3.42
2023-03-17T11:55:06.141Z,2.83
2023-03-17T11:58:16.813Z,2.90
2023-03-17T12:01:27.158Z,3.22
2023-03-17T12:04:35.194Z,3.75
2023-03-17T12:07:42.181Z,3.65
2023-03-17T12:10:49.479Z,3.63
2023-03-17T12:13:58.509Z,3.63
2023-03-17T12:17:12.363Z,3.47
2023-03-17T12:20:19.474Z,3.22
2023-03-17T12:23:30.030Z,3.33
2023-03-17T12:26:37.768Z,3.03
2023-03-17T12:29:47.349Z,3.53
2023-03-17T12:32:57.028Z,3.10
2023-03-17T12:36:01.115Z,3.50
2023-03-17T12:39:10.231Z,3.10
2023-03-17T12:42:33.672Z,3.53
2023-03-17T12:45:49.363Z,3.42
2023-03-17T12:49:27.514Z,2.78
2023-03-17T12:52:44.185Z,2.58
2023-03-17T12:55:50.086Z,3.03
2023-03-17T12:58:54.491Z,3.05
2023-03-17T13:02:06.278Z,2.90
2023-03-17T13:08:18.540Z,2.80
2023-03-17T13:11:28.411Z,2.83
2023-03-17T13:14:42.543Z,2.75
2023-03-17T13:17:46.376Z,2.70
2023-03-17T13:21:08.154Z,3.03
2023-03-17T13:24:23.447Z,3.20
2023-03-17T13:27:49.169Z,2.72
2023-03-17T13:31:11.434Z,2.63
2023-03-17T13:34:17.791Z,3.10
2023-03-17T13:37:28.859Z,2.63
2023-03-17T13:40:40.663Z,2.90
2023-03-17T13:46:54.553Z,2.65
2023-03-17T13:50:03.837Z,2.95
2023-03-17T13:53:11.633Z,2.55
2023-03-17T13:56:19.947Z,2.50
2023-03-17T13:59:27.589Z,2.63
2023-03-17T14:02:32.872Z,2.97
2023-03-17T14:05:38.442Z,2.95
2023-03-17T14:08:46.566Z,2.70
2023-03-17T14:11:49.179Z,2.70
2023-03-17T14:14:57.340Z,2.90
2023-03-17T14:18:04.342Z,2.60
2023-03-17T14:21:20.973Z,2.75
2023-03-17T14:24:25.309Z,2.45
2023-03-17T14:27:29.397Z,2.50
2023-03-17T14:30:34.041Z,2.50
2023-03-17T14:33:39.128Z,2.75
2023-03-17T14:36:43.634Z,2.80
2023-03-17T14:39:48.145Z,2.58
2023-03-17T14:42:50.931Z,2.53
2023-03-17T14:45:59.944Z,2.15
2023-03-17T14:49:04.896Z,2.40
2023-03-17T14:52:21.259Z,3.17
2023-03-17T14:55:35.730Z,2.55
2023-03-17T14:58:42.573Z,2.70
2023-03-17T15:01:48.601Z,2.38
2023-03-17T15:04:54.374Z,2.50
2023-03-17T15:07:58.257Z,2.67
2023-03-17T15:11:02.926Z,1.95
2023-03-17T15:14:15.740Z,2.40
2023-03-17T15:17:21.189Z,2.28
2023-03-17T15:20:24.247Z,2.65
2023-03-17T15:23:30.556Z,2.33
2023-03-17T15:26:33.132Z,2.40
2023-03-17T15:29:35.714Z,2.28
2023-03-17T15:32:38.927Z,2.65
2023-03-17T15:35:41.523Z,2.28
2023-03-17T15:38:45.730Z,2.88
2023-03-17T15:41:48.313Z,2.40
2023-03-17T15:44:51.315Z,2.53
2023-03-17T15:47:54.441Z,2.63
2023-03-17T15:50:59.946Z,2.75
2023-03-17T15:54:04.038Z,2.50
2023-03-17T15:57:06.647Z,2.70
2023-03-17T16:00:12.901Z,2.67
2023-03-17T16:03:19.912Z,2.15
2023-03-17T16:06:24.055Z,2.80
2023-03-17T16:09:27.852Z,2.33
2023-03-17T16:12:30.414Z,2.08
2023-03-17T16:15:37.004Z,2.15
2023-03-17T16:18:39.563Z,2.50
2023-03-17T16:21:42.438Z,2.95
2023-03-17T16:24:46.273Z,2.38
2023-03-17T16:27:49.636Z,2.45
2023-03-17T16:30:54.305Z,2.45
2023-03-17T16:33:58.006Z,2.20
2023-03-17T16:37:00.532Z,2.15
2023-03-17T16:40:05.058Z,2.55
2023-03-17T16:43:25.243Z,2.53
2023-03-17T16:46:34.461Z,2.70
2023-03-17T16:49:37.990Z,2.72
2023-03-17T16:52:40.813Z,2.25
2023-03-17T16:55:45.928Z,2.90
2023-03-17T16:58:49.402Z,4.10
2023-03-17T17:01:54.802Z,2.97
2023-03-17T17:04:57.829Z,3.17
2023-03-17T17:08:00.900Z,3.00
2023-03-17T17:11:05.854Z,2.90
2023-03-17T17:14:08.984Z,2.70
2023-03-17T17:17:11.714Z,2.30
2023-03-17T17:20:17.679Z,3.22
2023-03-17T17:23:22.651Z,2.55
2023-03-17T17:26:26.998Z,2.53
2023-03-17T17:29:32.240Z,2.85
2023-03-17T17:32:36.158Z,2.55
2023-03-17T17:35:39.519Z,2.60
2023-03-17T17:38:42.721Z,2.25
2023-03-17T17:41:46.601Z,2.70
2023-03-17T17:44:49.281Z,2.58
2023-03-17T17:47:51.926Z,2.50
2023-03-17T17:50:57.600Z,2.70
2023-03-17T17:54:00.312Z,2.78
2023-03-17T17:57:05.367Z,2.45
